Flight Track Log - Related Links

Times and Time Zones

All times are in EDT time to prevent confusion due to time zone crossing. See the UAL4422 flight status page for this flight to view local times or setup timezone preferences in your user account.

Time Position Orientation Groundspeed Altitude Reporting Facility
EDT Latitude Longitude Course Direction KTS MPH feet Rate Location/Type
Sat 09:12:01 AM 41.3897 -81.8811 196° South 153 176 1,700  Level Cleveland Center
Sat 09:12:37 AM 41.3625 -81.8917 196° South 176 203 2,800 2,077 Climbing Cleveland Center
Sat 09:13:45 AM 41.2914 -81.9150 194° South 247 284 5,300 2,484 Climbing Cleveland Center
Sat 09:14:45 AM 41.2264 -81.9358 194° South 255 293 8,100 2,550 Climbing Cleveland Center
Sat 09:15:45 AM 41.1556 -81.9536 191° South 255 293 10,400 1,750 Climbing Cleveland Center
Sat 09:16:45 AM 41.0778 -81.9906 200° South 285 328 11,600 1,100 Climbing Cleveland Center
Sat 09:17:45 AM 40.9958 -82.0439 206° Southwest 314 361 12,600 1,250 Climbing Cleveland Center
Sat 09:18:45 AM 40.9117 -82.1025 208° Southwest 338 389 14,100 1,747 Climbing Cleveland Center
Sat 09:20:47 AM 40.7425 -82.2092 206° Southwest 327 376 17,900 1,761 Climbing Indianapolis Center
Sat 09:21:49 AM 40.6608 -82.2628 206° Southwest 326 375 19,500 1,561 Climbing Indianapolis Center
Sat 09:22:50 AM 40.5781 -82.3156 206° Southwest 326 375 21,100 1,574 Climbing Indianapolis Center
Sat 09:23:51 AM 40.4975 -82.3683 206° Southwest 323 372 22,700 1,561 Climbing Indianapolis Center
Sat 09:24:53 AM 40.4167 -82.4197 206° Southwest 321 369 24,300 1,561 Climbing Indianapolis Center
Sat 09:25:54 AM 40.3383 -82.4706 206° Southwest 313 360 25,900 1,561 Climbing Indianapolis Center
Sat 09:26:56 AM 40.2606 -82.5189 205° Southwest 305 351 27,500 1,512 Climbing Indianapolis Center
Sat 09:27:57 AM 40.1819 -82.5700 206° Southwest 292 336 29,000 1,268 Climbing Indianapolis Center
Sat 09:28:59 AM 40.0997 -82.5936 192° South 304 350 30,100 1,024 Climbing Indianapolis Center
Sat 09:30:00 AM 40.0100 -82.5986 182° South 317 365 31,100 976 Climbing Indianapolis Center
Sat 09:31:02 AM 39.9183 -82.6039 183° South 323 372 32,100 1,024 Climbing Indianapolis Center
Sat 09:32:03 AM 39.8261 -82.6114 184° South 327 376 33,200 878 Climbing Indianapolis Center
Sat 09:33:05 AM 39.7356 -82.6158 182° South 323 372 33,900 585 Climbing Indianapolis Center
Sat 09:34:06 AM 39.6417 -82.6231 183° South 332 382 34,400 732 Climbing Indianapolis Center
Sat 09:35:08 AM 39.5467 -82.6303 183° South 336 387 35,400 780 Climbing Indianapolis Center
Sat 09:36:09 AM 39.4558 -82.6344 182° South 324 373 36,000 293 Climbing Indianapolis Center
Sat 09:37:11 AM 39.3597 -82.6419 183° South 338 389 36,000  Level Indianapolis Center
Sat 09:38:13 AM 39.2603 -82.6475 182° South 351 404 36,000  Level Indianapolis Center
Sat 09:39:14 AM 39.1469 -82.6547 183° South 361 415 36,000  Level Indianapolis Center
Sat 09:40:16 AM 39.0411 -82.6622 183° South 377 434 36,000  Level Indianapolis Center
Sat 09:41:17 AM 38.9331 -82.6694 183° South 386 444 36,000  Level Indianapolis Center
Sat 09:42:19 AM 38.8244 -82.6764 183° South 392 451 36,000  Level Indianapolis Center
Sat 09:43:20 AM 38.7164 -82.6839 183° South 391 450 36,000  Level Indianapolis Center
Sat 09:44:22 AM 38.5950 -82.6911 183° South 387 445 36,000  Level Indianapolis Center
Sat 09:45:24 AM 38.4881 -82.6989 183° South 384 442 36,000  Level Indianapolis Center
Sat 09:46:25 AM 38.3806 -82.7053 183° South 385 443 36,000  Level Indianapolis Center
Sat 09:47:27 AM 38.2731 -82.7144 184° South 385 443 36,000  Level Indianapolis Center
Sat 09:48:29 AM 38.1653 -82.7189 182° South 385 443 36,000  Level Indianapolis Center
Sat 09:49:30 AM 38.0411 -82.7297 184° South 382 440 36,000  Level Indianapolis Center
Sat 09:50:32 AM 37.9331 -82.7369 183° South 385 443 36,000  Level Indianapolis Center
Sat 09:51:34 AM 37.8247 -82.7428 182° South 388 447 36,000  Level Indianapolis Center
Sat 09:52:35 AM 37.7167 -82.7544 185° South 388 447 36,000  Level Indianapolis Center
Sat 09:53:37 AM 37.6161 -82.7936 197° South 379 436 36,000  Level Indianapolis Center
Sat 09:54:39 AM 37.5233 -82.8547 208° Southwest 376 433 36,000  Level Indianapolis Center
Sat 09:55:40 AM 37.4156 -82.9256 208° Southwest 375 432 36,000  Level Indianapolis Center
Sat 09:56:42 AM 37.3225 -82.9861 207° Southwest 377 434 36,000  Level Indianapolis Center
Sat 09:57:44 AM 37.2289 -83.0472 207° Southwest 379 436 36,000  Level Indianapolis Center
Sat 09:58:45 AM 37.1356 -83.1078 207° Southwest 381 438 36,000  Level Indianapolis Center
Sat 09:59:47 AM 37.0425 -83.1694 208° Southwest 381 438 36,000  Level Indianapolis Center
Sat 10:00:49 AM 36.9486 -83.2294 207° Southwest 381 438 36,000  Level Indianapolis Center
Sat 10:01:50 AM 36.8394 -83.2997 207° Southwest 381 438 36,000  Level Indianapolis Center
Sat 10:02:52 AM 36.7447 -83.3608 207° Southwest 383 441 36,000  Level Indianapolis Center
Sat 10:03:53 AM 36.6508 -83.4222 208° Southwest 381 438 36,000  Level Indianapolis Center
Sat 10:04:55 AM 36.5561 -83.4819 207° Southwest 383 441 36,000  Level Indianapolis Center
Sat 10:05:57 AM 36.4589 -83.5442 207° Southwest 380 437 36,000  Level Indianapolis Center
Sat 10:06:58 AM 36.3531 -83.5675 190° South 394 453 36,000  Level Indianapolis Center
Sat 10:08:00 AM 36.2369 -83.5611 177° South 410 472 36,000  Level Indianapolis Center
Sat 10:09:05 AM 36.1011 -83.5556 178° South 405 466 36,000  Level Atlanta Center
Sat 10:10:05 AM 35.9886 -83.5511 178° South 405 466 36,000  Level Atlanta Center
Sat 10:11:05 AM 35.8758 -83.5417 176° South 405 466 36,000  Level Atlanta Center
Sat 10:12:05 AM 35.7653 -83.5372 178° South 405 466 36,000  Level Atlanta Center
Sat 10:13:05 AM 35.6525 -83.5328 178° South 405 466 36,000  Level Atlanta Center
Sat 10:14:05 AM 35.5419 -83.5258 177° South 405 466 36,000  Level Atlanta Center
Sat 10:15:05 AM 35.4272 -83.5189 177° South 405 466 36,000  Level Atlanta Center
Sat 10:16:05 AM 35.3186 -83.5144 178° South 405 466 36,000  Level Atlanta Center
Sat 10:17:05 AM 35.2081 -83.5075 177° South 405 466 36,000  Level Atlanta Center
Sat 10:18:05 AM 35.1058 -83.5031 178° South 405 466 36,000  Level Atlanta Center
Sat 10:19:05 AM 34.9994 -83.4936 176° South 400 460 36,000  Level Atlanta Center
Sat 10:20:05 AM 34.8908 -83.4892 178° South 400 460 36,000  Level Atlanta Center
Sat 10:21:05 AM 34.7803 -83.4875 179° South 400 460 36,000  Level Atlanta Center
Sat 10:22:05 AM 34.6758 -83.4781 176° South 395 455 36,000  Level Atlanta Center
Sat 10:23:05 AM 34.5736 -83.4711 177° South 375 432 36,000  Level Atlanta Center
Sat 10:24:05 AM 34.4692 -83.4669 178° South 375 432 36,000  Level Atlanta Center
Sat 10:25:05 AM 34.3606 -83.4600 177° South 375 432 36,000  Level Atlanta Center
Sat 10:26:05 AM 34.2500 -83.4558 178° South 375 432 36,000  Level Atlanta Center
Sat 10:27:05 AM 34.1456 -83.4514 178° South 380 437 36,000  Level Atlanta Center
Sat 10:28:05 AM 34.0392 -83.4447 177° South 385 443 36,000  Level Atlanta Center
Sat 10:29:05 AM 33.9347 -83.4378 177° South 385 443 36,000  Level Atlanta Center
Sat 10:30:05 AM 33.8325 -83.4336 178° South 375 432 36,000  Level Atlanta Center
Sat 10:31:05 AM 33.7281 -83.4269 177° South 375 432 36,000  Level Atlanta Center
Sat 10:32:05 AM 33.6278 -83.4225 178° South 368 423 36,000  Level Atlanta Center
Sat 10:33:05 AM 33.5381 -83.4183 178° South 362 417 36,000  Level Atlanta Center
Sat 10:34:05 AM 33.4378 -83.4139 178° South 362 417 36,000  Level Atlanta Center
Sat 10:35:05 AM 33.3375 -83.4072 177° South 362 417 36,000  Level Atlanta Center
Sat 10:36:05 AM 33.2375 -83.4031 178° South 362 417 36,000  Level Atlanta Center
Sat 10:37:05 AM 33.1414 -83.3986 178° South 362 417 36,000  Level Atlanta Center
Sat 10:38:05 AM 33.0328 -83.3947 178° South 357 411 36,000  Level Atlanta Center
Sat 10:39:05 AM 32.9347 -83.3903 178° South 357 411 36,000 400 Level Atlanta Center
Sat 10:40:05 AM 32.8364 -83.3836 177° South 357 411 36,800 500 Climbing Atlanta Center
Sat 10:41:05 AM 32.7406 -83.3794 178° South 352 405 37,000 100 Climbing Atlanta Center
Sat 10:42:05 AM 32.6403 -83.3728 177° South 352 405 37,000  Level Atlanta Center
Sat 10:43:05 AM 32.5381 -83.3711 179° South 357 411 37,000  Level Atlanta Center
Sat 10:44:05 AM 32.4378 -83.3644 177° South 362 417 37,000  Level Atlanta Center
Sat 10:44:56 AM 32.3597 -83.3575 176° South 368 423 37,000  Level Jacksonville Center
Sat 10:45:56 AM 32.2556 -83.3544 179° South 362 417 37,000  Level Jacksonville Center
Sat 10:46:56 AM 32.1386 -83.3464 177° South 374 430 37,000  Level Jacksonville Center
Sat 10:47:56 AM 32.0300 -83.3411 178° South 379 436 37,000  Level Jacksonville Center
Sat 10:48:56 AM 31.9236 -83.3356 177° South 384 442 37,000  Level Jacksonville Center
Sat 10:49:56 AM 31.8172 -83.3303 178° South 384 442 37,000  Level Jacksonville Center
Sat 10:50:56 AM 31.7106 -83.3247 177° South 384 442 37,000  Level Jacksonville Center
Sat 10:51:56 AM 31.6022 -83.3219 179° South 384 442 37,000  Level Jacksonville Center
Sat 10:52:56 AM 31.4956 -83.3142 176° South 384 442 37,000  Level Jacksonville Center
Sat 10:53:56 AM 31.3869 -83.3111 179° South 384 442 37,000  Level Jacksonville Center
Sat 10:54:56 AM 31.2806 -83.2817 167° South 384 442 37,000  Level Jacksonville Center
Sat 10:55:56 AM 31.1722 -83.2397 162° South 394 453 37,000  Level Jacksonville Center
Sat 10:56:56 AM 31.0658 -83.1981 161° South 399 459 37,000  Level Jacksonville Center
Sat 10:57:56 AM 30.9553 -83.1567 162° South 406 467 37,000  Level Jacksonville Center
Sat 10:58:56 AM 30.8467 -83.1128 161° South 406 467 37,000  Level Jacksonville Center
Sat 10:59:56 AM 30.7403 -83.0714 162° South 406 467 37,000  Level Jacksonville Center
Sat 11:00:56 AM 30.6319 -83.0278 161° South 406 467 37,000  Level Jacksonville Center
Sat 11:01:56 AM 30.5211 -82.9842 161° South 411 473 37,000  Level Jacksonville Center
Sat 11:02:56 AM 30.4106 -82.9431 162° South 411 473 37,000  Level Jacksonville Center
Sat 11:03:56 AM 30.3000 -82.9022 162° South 411 473 37,000  Level Jacksonville Center
Sat 11:04:56 AM 30.1914 -82.8589 161° South 421 484 37,000  Level Jacksonville Center
Sat 11:05:56 AM 30.0892 -82.8206 162° South 421 484 37,000  Level Jacksonville Center
Sat 11:06:55 AM 29.9742 -82.7822 164° South 426 490 37,000  Level Jacksonville Center
Sat 11:07:55 AM 29.8636 -82.7369 160° South 426 490 37,000  Level Jacksonville Center
Sat 11:08:56 AM 29.7486 -82.6964 163° South 426 490 37,000  Level Jacksonville Center
Sat 11:09:56 AM 29.6358 -82.6536 162° South 426 490 37,000  Level Jacksonville Center
Sat 11:10:56 AM 29.5189 -82.6061 161° South 426 490 37,000  Level Jacksonville Center
Sat 11:11:56 AM 29.4039 -82.5614 161° South 436 502 37,000  Level Jacksonville Center
Sat 11:12:56 AM 29.2911 -82.5211 163° South 436 502 37,000  Level Jacksonville Center
Sat 11:13:56 AM 29.1822 -82.4786 161° South 429 494 37,000  Level Jacksonville Center
Sat 11:14:56 AM 29.0758 -82.4458 165° South 419 482 37,000  Level Jacksonville Center
Sat 11:15:56 AM 28.9692 -82.4297 172° South 401 461 37,000  Level Jacksonville Center
Sat 11:16:56 AM 28.8606 -82.4161 174° South 394 453 37,000  Level Jacksonville Center
Sat 11:17:56 AM 28.7542 -82.4022 173° South 388 447 37,000  Level Jacksonville Center
Sat 11:18:55 AM 28.6331 -82.3886 174° South 388 447 37,000  Level Jacksonville Center
Sat 11:19:56 AM 28.5203 -82.3728 173° South 399 459 37,000  Level Jacksonville Center
Sat 11:20:56 AM 28.4033 -82.3592 174° South 413 475 37,000 -303 Level Jacksonville Center
Sat 11:21:55 AM 28.2886 -82.3433 173° South 418 481 36,400 -600 Descending Jacksonville Center
Sat 11:24:16 AM 28.0200 -82.3058 173° South 437 503 35,000 -418 Descending Miami Center
Sat 11:25:16 AM 27.9089 -82.2675 163° South 437 503 35,000 -200 Level Miami Center
Sat 11:26:16 AM 27.7811 -82.2217 162° South 432 497 34,600 -650 Descending Miami Center
Sat 11:27:16 AM 27.6636 -82.1808 163° South 444 511 33,700 -850 Descending Miami Center
Sat 11:28:16 AM 27.5525 -82.1406 162° South 434 499 32,900 -1,050 Descending Miami Center
Sat 11:29:16 AM 27.4494 -82.1078 164° South 426 490 31,600 -1,500 Descending Miami Center
Sat 11:30:16 AM 27.3194 -82.0622 163° South 435 501 29,900 -1,600 Descending Miami Center
Sat 11:31:16 AM 27.2019 -82.0219 163° South 441 507 28,400 -1,450 Descending Miami Center
Sat 11:32:16 AM 27.0844 -81.9839 164° South 447 514 27,000 -1,450 Descending Miami Center
Sat 11:33:16 AM 26.9792 -81.9514 165° South 442 509 25,500 -1,500 Descending Miami Center
Sat 11:34:16 AM 26.8728 -81.8864 151° Southeast 436 502 24,000 -1,400 Descending Miami Center
Sat 11:35:16 AM 26.7864 -81.7942 136° Southeast 427 491 22,700 -1,850 Descending Miami Center
Sat 11:36:16 AM 26.7122 -81.7003 131° Southeast 407 468 20,300 -1,800 Descending Miami Center
Sat 11:37:16 AM 26.7019 -81.5650 95° East 368 423 19,100 -650 Descending Miami Center
Sat 11:38:16 AM 26.7325 -81.4572 72° East 379 436 19,000 -550 Descending Miami Center
Sat 11:39:16 AM 26.7617 -81.3328 75° East 409 471 18,000 -2,050 Descending Miami Center
Sat 11:40:16 AM 26.7906 -81.2011 76° East 397 457 14,900 -3,100 Descending Miami Center
Sat 11:41:16 AM 26.8169 -81.0858 76° East 385 443 11,800 -2,400 Descending Miami Center
Sat 11:42:16 AM 26.8281 -80.9861 83° East 369 425 10,100 -900 Descending Miami Center
Sat 11:43:16 AM 26.8372 -80.8842 84° East 334 384 10,000 -50 Descending Miami Center
Sat 11:44:16 AM 26.8128 -80.7856 106° East 306 352 10,000 -300 Level Miami Center
Sat 11:45:16 AM 26.7819 -80.6961 111° Southeast 301 346 9,400 -1,200 Descending Miami Center
Sat 11:46:16 AM 26.7483 -80.6158 115° Southeast 295 339 7,600 -1,700 Descending Miami Center
Sat 11:47:16 AM 26.7211 -80.5406 112° Southeast 272 313 6,000 -1,800 Descending Miami Center
Sat 11:48:16 AM 26.7000 -80.4656 107° East 254 292 4,000 -1,500 Descending Miami Center
Sat 11:49:16 AM 26.6936 -80.3886 95° East 242 278 3,000 -500 Descending Miami Center
Sat 11:50:16 AM 26.6908 -80.3233 93° East 237 273 3,000 -300 Level Miami Center
Sat 11:51:16 AM 26.6864 -80.2467 94° East 231 266 2,400 -800 Descending Miami Center
Sat 11:52:16 AM 26.6836 -80.1883 93° East 224 258 1,400 -1,000 Descending Miami Center
Sat 11:54:00 AM 26.6832 -80.0956 50° Northeast  Level Estimated
Sat 12:01:00 PM 26.6832 -80.0956 50° Northeast  Level Estimated
Sat 12:02:00 PM 26.6832 -80.0956 50° Northeast  Level Estimated

Login

Don't have an account? Register now (free) for customized features, flight alerts, and more!